sensor_id;sensor_type;location;lat;lon;timestamp;pressure;altitude;pressure_sealevel;temperature;humidity
78331;BME280;67594;53.854;-1.542;2023-02-28T00:02:11;101855.09;;;17.63;43.80
78331;BME280;67594;53.854;-1.542;2023-02-28T00:04:36;101858.81;;;17.63;44.14
78331;BME280;67594;53.854;-1.542;2023-02-28T00:07:02;101855.25;;;17.62;44.00
78331;BME280;67594;53.854;-1.542;2023-02-28T00:09:27;101862.47;;;17.61;43.73
78331;BME280;67594;53.854;-1.542;2023-02-28T00:11:52;101857.94;;;17.62;43.87
78331;BME280;67594;53.854;-1.542;2023-02-28T00:14:18;101858.81;;;17.63;43.96
78331;BME280;67594;53.854;-1.542;2023-02-28T00:16:43;101859.78;;;17.61;43.57
78331;BME280;67594;53.854;-1.542;2023-02-28T00:19:08;101861.00;;;17.57;43.56
78331;BME280;67594;53.854;-1.542;2023-02-28T00:21:33;101858.81;;;17.63;43.71
78331;BME280;67594;53.854;-1.542;2023-02-28T00:23:59;101859.78;;;17.61;43.57
78331;BME280;67594;53.854;-1.542;2023-02-28T00:26:24;101868.38;;;17.55;43.68
78331;BME280;67594;53.854;-1.542;2023-02-28T00:28:51;101870.97;;;17.57;43.46
78331;BME280;67594;53.854;-1.542;2023-02-28T00:31:17;101871.09;;;17.55;43.43
78331;BME280;67594;53.854;-1.542;2023-02-28T00:33:42;101870.09;;;17.56;43.48
78331;BME280;67594;53.854;-1.542;2023-02-28T00:36:09;101869.25;;;17.56;43.79
78331;BME280;67594;53.854;-1.542;2023-02-28T00:38:36;101865.56;;;17.57;43.15
78331;BME280;67594;53.854;-1.542;2023-02-28T00:41:01;101875.50;;;17.56;43.29
78331;BME280;67594;53.854;-1.542;2023-02-28T00:43:27;101872.06;;;17.54;43.48
78331;BME280;67594;53.854;-1.542;2023-02-28T00:45:52;101869.97;;;17.58;43.07
78331;BME280;67594;53.854;-1.542;2023-02-28T00:48:17;101877.94;;;17.59;43.07
78331;BME280;67594;53.854;-1.542;2023-02-28T00:50:43;101878.06;;;17.58;43.12
78331;BME280;67594;53.854;-1.542;2023-02-28T00:53:08;101881.88;;;17.55;43.36
78331;BME280;67594;53.854;-1.542;2023-02-28T00:55:33;101887.16;;;17.57;43.24
78331;BME280;67594;53.854;-1.542;2023-02-28T00:57:58;101885.44;;;17.56;43.24
78331;BME280;67594;53.854;-1.542;2023-02-28T01:00:24;101881.34;;;17.61;43.57
78331;BME280;67594;53.854;-1.542;2023-02-28T01:02:49;101878.53;;;17.63;43.73
78331;BME280;67594;53.854;-1.542;2023-02-28T01:05:14;101875.09;;;17.61;43.56
78331;BME280;67594;53.854;-1.542;2023-02-28T01:07:40;101878.53;;;17.63;43.60
78331;BME280;67594;53.854;-1.542;2023-02-28T01:10:05;101880.22;;;17.64;43.54
78331;BME280;67594;53.854;-1.542;2023-02-28T01:12:31;101877.28;;;17.67;43.88
78331;BME280;67594;53.854;-1.542;2023-02-28T01:14:56;101871.88;;;17.67;43.71
78331;BME280;67594;53.854;-1.542;2023-02-28T01:17:22;101878.84;;;17.70;43.68
78331;BME280;67594;53.854;-1.542;2023-02-28T01:19:47;101869.78;;;17.71;44.23
78331;BME280;67594;53.854;-1.542;2023-02-28T01:22:12;101876.16;;;17.70;43.51
78331;BME280;67594;53.854;-1.542;2023-02-28T01:24:38;101887.53;;;17.73;43.96
78331;BME280;67594;53.854;-1.542;2023-02-28T01:27:03;101881.03;;;17.76;43.83
78331;BME280;67594;53.854;-1.542;2023-02-28T01:29:28;101882.75;;;17.77;43.82
78331;BME280;67594;53.854;-1.542;2023-02-28T01:31:53;101879.06;;;17.78;44.33
78331;BME280;67594;53.854;-1.542;2023-02-28T01:34:19;101872.41;;;17.82;43.82
78331;BME280;67594;53.854;-1.542;2023-02-28T01:36:45;101874.97;;;17.83;43.25
78331;BME280;67594;53.854;-1.542;2023-02-28T01:39:10;101870.72;;;17.81;43.74
78331;BME280;67594;53.854;-1.542;2023-02-28T01:41:35;101865.16;;;17.82;43.44
78331;BME280;67594;53.854;-1.542;2023-02-28T01:44:07;101864.19;;;17.83;43.66
78331;BME280;67594;53.854;-1.542;2023-02-28T01:46:35;101863.78;;;17.88;43.57
78331;BME280;67594;53.854;-1.542;2023-02-28T01:49:13;101862.69;;;17.90;43.77
78331;BME280;67594;53.854;-1.542;2023-02-28T01:51:49;101862.69;;;17.90;43.38
78331;BME280;67594;53.854;-1.542;2023-02-28T01:54:18;101863.78;;;17.88;43.44
78331;BME280;67594;53.854;-1.542;2023-02-28T01:56:55;101861.81;;;17.90;43.57
78331;BME280;67594;53.854;-1.542;2023-02-28T01:59:29;101857.28;;;17.90;43.92
78331;BME280;67594;53.854;-1.542;2023-02-28T02:01:57;101859.25;;;17.88;43.46
78331;BME280;67594;53.854;-1.542;2023-02-28T02:04:27;101855.56;;;17.89;43.33
78331;BME280;67594;53.854;-1.542;2023-02-28T02:06:55;101856.44;;;17.90;43.74
78331;BME280;67594;53.854;-1.542;2023-02-28T02:09:21;101850.88;;;17.91;43.52
78331;BME280;67594;53.854;-1.542;2023-02-28T02:11:46;101854.59;;;17.90;43.75
78331;BME280;67594;53.854;-1.542;2023-02-28T02:14:40;101853.31;;;17.94;43.41
78331;BME280;67594;53.854;-1.542;2023-02-28T02:17:20;101851.03;;;17.90;43.13
78331;BME280;67594;53.854;-1.542;2023-02-28T02:36:13;101856.69;;;17.87;43.11
78331;BME280;67594;53.854;-1.542;2023-02-28T02:41:18;101850.44;;;17.86;43.01
78331;BME280;67594;53.854;-1.542;2023-02-28T02:43:49;101851.41;;;17.85;43.05
78331;BME280;67594;53.854;-1.542;2023-02-28T02:48:52;101862.09;;;17.87;43.16
78331;BME280;67594;53.854;-1.542;2023-02-28T02:51:21;101854.72;;;17.89;42.74
78331;BME280;67594;53.854;-1.542;2023-02-28T02:53:57;101853.84;;;17.88;43.03
78331;BME280;67594;53.854;-1.542;2023-02-28T02:56:28;101852.47;;;17.94;42.88
78331;BME280;67594;53.854;-1.542;2023-02-28T02:58:59;101855.84;;;17.86;42.87
78331;BME280;67594;53.854;-1.542;2023-02-28T03:01:26;101856.69;;;17.87;42.97
78331;BME280;67594;53.854;-1.542;2023-02-28T03:04:12;101848.97;;;17.82;42.79
78331;BME280;67594;53.854;-1.542;2023-02-28T03:06:39;101857.56;;;17.87;42.42
78331;BME280;67594;53.854;-1.542;2023-02-28T03:09:04;101860.53;;;17.84;42.43
78331;BME280;67594;53.854;-1.542;2023-02-28T03:11:30;101858.09;;;17.81;42.88
78331;BME280;67594;53.854;-1.542;2023-02-28T03:17:18;101859.06;;;17.80;42.67
78331;BME280;67594;53.854;-1.542;2023-02-28T03:22:58;101858.47;;;17.77;42.58
78331;BME280;67594;53.854;-1.542;2023-02-28T03:25:39;101861.16;;;17.77;42.19
78331;BME280;67594;53.854;-1.542;2023-02-28T03:31:41;101867.78;;;17.73;42.18
78331;BME280;67594;53.854;-1.542;2023-02-28T03:33:53;101853.59;;;17.71;42.33
78331;BME280;67594;53.854;-1.542;2023-02-28T03:36:30;101854.63;;;17.79;42.58
78331;BME280;67594;53.854;-1.542;2023-02-28T03:39:07;101856.63;;;17.77;41.93
78331;BME280;67594;53.854;-1.542;2023-02-28T03:41:39;101859.44;;;17.76;42.25
78331;BME280;67594;53.854;-1.542;2023-02-28T03:44:15;101868.53;;;17.75;41.74
78331;BME280;67594;53.854;-1.542;2023-02-28T03:47:20;101855.75;;;17.77;42.11
78331;BME280;67594;53.854;-1.542;2023-02-28T03:49:46;101861.31;;;17.75;42.37
78331;BME280;67594;53.854;-1.542;2023-02-28T03:52:15;101855.25;;;17.83;42.41
78331;BME280;67594;53.854;-1.542;2023-02-28T03:54:49;101857.81;;;17.84;42.51
78331;BME280;67594;53.854;-1.542;2023-02-28T04:00:05;101860.53;;;17.84;42.74
78331;BME280;67594;53.854;-1.542;2023-02-28T04:02:32;101858.19;;;17.80;42.66
78331;BME280;67594;53.854;-1.542;2023-02-28T04:04:58;101858.78;;;17.83;42.45
78331;BME280;67594;53.854;-1.542;2023-02-28T04:07:24;101859.44;;;17.76;42.68
78331;BME280;67594;53.854;-1.542;2023-02-28T04:09:49;101857.94;;;17.83;42.43
78331;BME280;67594;53.854;-1.542;2023-02-28T04:12:15;101857.94;;;17.83;42.17
78331;BME280;67594;53.854;-1.542;2023-02-28T04:14:40;101856.22;;;17.82;42.54
78331;BME280;67594;53.854;-1.542;2023-02-28T04:17:05;101849.31;;;17.89;42.61
78331;BME280;67594;53.854;-1.542;2023-02-28T04:19:30;101844.06;;;17.87;43.02
78331;BME280;67594;53.854;-1.542;2023-02-28T04:21:56;101848.88;;;17.84;42.81
78331;BME280;67594;53.854;-1.542;2023-02-28T04:24:27;101845.31;;;17.83;42.60
78331;BME280;67594;53.854;-1.542;2023-02-28T04:26:54;101852.88;;;17.89;42.82
78331;BME280;67594;53.854;-1.542;2023-02-28T04:31:50;101850.28;;;17.88;42.61
78331;BME280;67594;53.854;-1.542;2023-02-28T04:34:16;101851.38;;;17.96;42.84
78331;BME280;67594;53.854;-1.542;2023-02-28T04:36:41;101863.41;;;17.92;42.52
78331;BME280;67594;53.854;-1.542;2023-02-28T04:39:07;101857.59;;;17.97;42.70
78331;BME280;67594;53.854;-1.542;2023-02-28T04:41:32;101863.84;;;17.97;42.93
78331;BME280;67594;53.854;-1.542;2023-02-28T04:43:57;101859.84;;;17.92;42.36
78331;BME280;67594;53.854;-1.542;2023-02-28T04:46:23;101871.81;;;17.99;42.20
78331;BME280;67594;53.854;-1.542;2023-02-28T04:48:49;101867.28;;;17.99;42.23
78331;BME280;67594;53.854;-1.542;2023-02-28T04:51:16;101868.84;;;18.02;42.62
78331;BME280;67594;53.854;-1.542;2023-02-28T04:53:43;101864.16;;;18.04;42.31
78331;BME280;67594;53.854;-1.542;2023-02-28T04:56:12;101866.75;;;18.05;42.21
78331;BME280;67594;53.854;-1.542;2023-02-28T04:58:37;101868.00;;;18.01;43.20
78331;BME280;67594;53.854;-1.542;2023-02-28T05:01:15;101862.19;;;18.06;42.45
78331;BME280;67594;53.854;-1.542;2023-02-28T05:03:42;101862.00;;;17.98;42.16
78331;BME280;67594;53.854;-1.542;2023-02-28T05:06:08;101867.84;;;18.03;42.36
78331;BME280;67594;53.854;-1.542;2023-02-28T05:08:33;101857.06;;;18.03;42.25
78331;BME280;67594;53.854;-1.542;2023-02-28T05:10:59;101870.97;;;17.98;42.36
78331;BME280;67594;53.854;-1.542;2023-02-28T05:13:25;101870.69;;;18.01;42.08
78331;BME280;67594;53.854;-1.542;2023-02-28T05:15:50;101867.59;;;18.06;42.44
78331;BME280;67594;53.854;-1.542;2023-02-28T05:18:15;101868.88;;;18.11;41.77
78331;BME280;67594;53.854;-1.542;2023-02-28T05:20:40;101871.59;;;18.11;42.27
78331;BME280;67594;53.854;-1.542;2023-02-28T05:23:06;101873.47;;;18.11;41.99
78331;BME280;67594;53.854;-1.542;2023-02-28T05:25:31;101872.59;;;18.10;42.24
78331;BME280;67594;53.854;-1.542;2023-02-28T05:27:56;101871.88;;;18.08;42.34
78331;BME280;67594;53.854;-1.542;2023-02-28T05:30:21;101865.31;;;18.01;42.54
78331;BME280;67594;53.854;-1.542;2023-02-28T05:32:50;101870.75;;;18.11;42.45
78331;BME280;67594;53.854;-1.542;2023-02-28T05:35:16;101872.44;;;18.12;42.09
78331;BME280;67594;53.854;-1.542;2023-02-28T05:37:41;101866.75;;;18.05;42.11
78331;BME280;67594;53.854;-1.542;2023-02-28T05:40:07;101870.28;;;18.06;42.16
78331;BME280;67594;53.854;-1.542;2023-02-28T05:42:33;101883.25;;;18.12;42.49
78331;BME280;67594;53.854;-1.542;2023-02-28T05:44:58;101875.41;;;18.09;41.83
78331;BME280;67594;53.854;-1.542;2023-02-28T05:47:23;101875.41;;;18.09;41.43
78331;BME280;67594;53.854;-1.542;2023-02-28T05:49:49;101869.91;;;18.10;41.41
78331;BME280;67594;53.854;-1.542;2023-02-28T05:52:14;101869.56;;;18.04;40.93
78331;BME280;67594;53.854;-1.542;2023-02-28T05:54:39;101877.94;;;18.01;41.74
78331;BME280;67594;53.854;-1.542;2023-02-28T05:57:04;101878.63;;;18.03;41.54
78331;BME280;67594;53.854;-1.542;2023-02-28T05:59:30;101883.16;;;17.93;41.60
78331;BME280;67594;53.854;-1.542;2023-02-28T06:01:55;101877.47;;;17.96;41.61
78331;BME280;67594;53.854;-1.542;2023-02-28T06:04:21;101890.75;;;17.88;41.30
78331;BME280;67594;53.854;-1.542;2023-02-28T06:06:48;101891.97;;;17.74;41.70
78331;BME280;67594;53.854;-1.542;2023-02-28T06:09:14;101891.97;;;17.74;41.56
78331;BME280;67594;53.854;-1.542;2023-02-28T06:11:39;101885.97;;;17.71;41.02
78331;BME280;67594;53.854;-1.542;2023-02-28T06:14:05;101886.47;;;17.65;41.18
78331;BME280;67594;53.854;-1.542;2023-02-28T06:16:32;101883.53;;;17.68;41.00
78331;BME280;67594;53.854;-1.542;2023-02-28T06:19:02;101885.00;;;17.72;41.20
78331;BME280;67594;53.854;-1.542;2023-02-28T06:21:28;101883.97;;;17.73;40.86
78331;BME280;67594;53.854;-1.542;2023-02-28T06:23:55;101891.34;;;17.71;41.60
78331;BME280;67594;53.854;-1.542;2023-02-28T06:26:20;101896.38;;;17.75;40.92
78331;BME280;67594;53.854;-1.542;2023-02-28T06:28:46;101893.09;;;17.72;41.27
78331;BME280;67594;53.854;-1.542;2023-02-28T06:31:13;101886.69;;;17.73;41.22
78331;BME280;67594;53.854;-1.542;2023-02-28T06:33:39;101892.34;;;17.70;40.91
78331;BME280;67594;53.854;-1.542;2023-02-28T06:36:06;101886.38;;;17.66;40.89
78331;BME280;67594;53.854;-1.542;2023-02-28T06:38:32;101896.94;;;17.58;41.36
78331;BME280;67594;53.854;-1.542;2023-02-28T06:40:59;101891.28;;;17.61;40.96
78331;BME280;67594;53.854;-1.542;2023-02-28T06:43:25;101889.44;;;17.61;41.09
78331;BME280;67594;53.854;-1.542;2023-02-28T06:45:57;101893.88;;;17.63;41.49
78331;BME280;67594;53.854;-1.542;2023-02-28T06:48:23;101888.59;;;17.61;41.18
78331;BME280;67594;53.854;-1.542;2023-02-28T06:50:48;101893.59;;;17.66;41.41
78331;BME280;67594;53.854;-1.542;2023-02-28T06:53:14;101898.72;;;17.69;41.45
78331;BME280;67594;53.854;-1.542;2023-02-28T06:55:39;101902.88;;;17.73;41.23
78331;BME280;67594;53.854;-1.542;2023-02-28T06:58:05;101898.06;;;17.76;41.24
78331;BME280;67594;53.854;-1.542;2023-02-28T07:00:30;101903.59;;;17.75;41.06
78331;BME280;67594;53.854;-1.542;2023-02-28T07:02:55;101908.75;;;17.78;41.25
78331;BME280;67594;53.854;-1.542;2023-02-28T07:05:23;101911.28;;;17.79;41.50
78331;BME280;67594;53.854;-1.542;2023-02-28T07:07:49;101914.47;;;17.84;40.93
78331;BME280;67594;53.854;-1.542;2023-02-28T07:10:14;101908.22;;;17.84;40.97
78331;BME280;67594;53.854;-1.542;2023-02-28T07:12:40;101916.75;;;17.89;42.01
78331;BME280;67594;53.854;-1.542;2023-02-28T07:15:05;101920.16;;;17.91;41.70
78331;BME280;67594;53.854;-1.542;2023-02-28T07:17:31;101919.66;;;17.97;41.18
78331;BME280;67594;53.854;-1.542;2023-02-28T07:19:56;101912.41;;;17.97;40.98
78331;BME280;67594;53.854;-1.542;2023-02-28T07:22:22;101911.44;;;17.98;41.56
78331;BME280;67594;53.854;-1.542;2023-02-28T07:24:47;101929.19;;;18.01;41.64
78331;BME280;67594;53.854;-1.542;2023-02-28T07:27:13;101908.41;;;18.12;42.68
78331;BME280;67594;53.854;-1.542;2023-02-28T07:29:38;101909.59;;;18.20;41.94
78331;BME280;67594;53.854;-1.542;2023-02-28T07:32:04;101911.16;;;18.22;41.91
78331;BME280;67594;53.854;-1.542;2023-02-28T07:34:29;101911.59;;;18.27;41.61
78331;BME280;67594;53.854;-1.542;2023-02-28T07:36:54;101911.22;;;18.32;41.41
78331;BME280;67594;53.854;-1.542;2023-02-28T07:39:21;101912.06;;;18.32;41.93
78331;BME280;67594;53.854;-1.542;2023-02-28T07:41:46;101917.19;;;18.35;41.29
78331;BME280;67594;53.854;-1.542;2023-02-28T07:44:12;101915.81;;;18.41;41.49
78331;BME280;67594;53.854;-1.542;2023-02-28T07:46:37;101914.22;;;18.38;41.51
78331;BME280;67594;53.854;-1.542;2023-02-28T07:49:03;101922.34;;;18.38;41.75
78331;BME280;67594;53.854;-1.542;2023-02-28T07:51:29;101920.06;;;18.43;41.64
78331;BME280;67594;53.854;-1.542;2023-02-28T07:53:55;101922.28;;;18.49;41.21
78331;BME280;67594;53.854;-1.542;2023-02-28T07:56:20;101920.75;;;18.56;41.94
78331;BME280;67594;53.854;-1.542;2023-02-28T07:58:46;101926.00;;;18.58;41.28
78331;BME280;67594;53.854;-1.542;2023-02-28T08:01:11;101922.72;;;18.54;41.36
78331;BME280;67594;53.854;-1.542;2023-02-28T08:03:38;101929.13;;;18.53;40.93
78331;BME280;67594;53.854;-1.542;2023-02-28T08:06:04;101921.56;;;18.57;40.85
78331;BME280;67594;53.854;-1.542;2023-02-28T08:08:30;101933.97;;;18.59;41.01
78331;BME280;67594;53.854;-1.542;2023-02-28T08:10:58;101934.41;;;18.64;40.64
78331;BME280;67594;53.854;-1.542;2023-02-28T08:13:24;101936.34;;;18.83;40.67
78331;BME280;67594;53.854;-1.542;2023-02-28T08:15:49;101927.81;;;18.88;40.49
78331;BME280;67594;53.854;-1.542;2023-02-28T08:18:14;101925.41;;;18.94;39.85
78331;BME280;67594;53.854;-1.542;2023-02-28T08:20:39;101925.03;;;19.08;39.68
78331;BME280;67594;53.854;-1.542;2023-02-28T08:23:05;101934.59;;;19.22;39.09
78331;BME280;67594;53.854;-1.542;2023-02-28T08:25:30;101930.31;;;19.29;39.27
78331;BME280;67594;53.854;-1.542;2023-02-28T08:27:55;101927.06;;;19.35;38.22
78331;BME280;67594;53.854;-1.542;2023-02-28T08:30:21;101929.22;;;19.41;38.73
78331;BME280;67594;53.854;-1.542;2023-02-28T08:32:46;101930.09;;;19.51;38.35
78331;BME280;67594;53.854;-1.542;2023-02-28T08:35:11;101929.38;;;19.59;37.60
78331;BME280;67594;53.854;-1.542;2023-02-28T08:37:37;101929.53;;;19.67;37.56
78331;BME280;67594;53.854;-1.542;2023-02-28T08:40:02;101931.53;;;19.74;37.68
78331;BME280;67594;53.854;-1.542;2023-02-28T08:42:27;101929.97;;;19.72;37.69
78331;BME280;67594;53.854;-1.542;2023-02-28T08:44:53;101927.81;;;19.85;37.29
78331;BME280;67594;53.854;-1.542;2023-02-28T08:47:18;101935.78;;;19.96;36.86
78331;BME280;67594;53.854;-1.542;2023-02-28T08:49:44;101932.91;;;20.07;36.08
78331;BME280;67594;53.854;-1.542;2023-02-28T08:52:09;101938.88;;;20.11;36.06
78331;BME280;67594;53.854;-1.542;2023-02-28T08:54:35;101931.22;;;20.06;36.29
78331;BME280;67594;53.854;-1.542;2023-02-28T08:57:00;101928.91;;;20.11;36.25
78331;BME280;67594;53.854;-1.542;2023-02-28T08:59:26;101932.03;;;20.16;35.72
78331;BME280;67594;53.854;-1.542;2023-02-28T09:01:51;101928.63;;;20.14;35.40
78331;BME280;67594;53.854;-1.542;2023-02-28T09:04:17;101930.88;;;20.19;35.64
78331;BME280;67594;53.854;-1.542;2023-02-28T09:06:42;101933.28;;;20.22;35.22
78331;BME280;67594;53.854;-1.542;2023-02-28T09:09:09;101933.75;;;20.27;35.49
78331;BME280;67594;53.854;-1.542;2023-02-28T09:11:35;101936.47;;;20.27;35.19
78331;BME280;67594;53.854;-1.542;2023-02-28T09:14:01;101936.59;;;20.35;35.93
78331;BME280;67594;53.854;-1.542;2023-02-28T09:16:26;101932.28;;;20.42;35.54
78331;BME280;67594;53.854;-1.542;2023-02-28T09:18:52;101931.16;;;20.35;35.70
78331;BME280;67594;53.854;-1.542;2023-02-28T09:21:18;101928.19;;;20.28;35.68
78331;BME280;67594;53.854;-1.542;2023-02-28T09:23:45;101934.59;;;20.18;35.27
78331;BME280;67594;53.854;-1.542;2023-02-28T09:26:17;101937.91;;;20.12;35.85
78331;BME280;67594;53.854;-1.542;2023-02-28T09:28:42;101944.16;;;20.12;35.44
78331;BME280;67594;53.854;-1.542;2023-02-28T09:31:12;101942.88;;;20.07;34.96
78331;BME280;67594;53.854;-1.542;2023-02-28T09:33:38;101947.72;;;20.13;35.23
78331;BME280;67594;53.854;-1.542;2023-02-28T09:36:04;101940.88;;;20.18;35.83
78331;BME280;67594;53.854;-1.542;2023-02-28T09:38:29;101935.88;;;20.23;35.11
78331;BME280;67594;53.854;-1.542;2023-02-28T09:41:00;101937.47;;;20.26;35.30
78331;BME280;67594;53.854;-1.542;2023-02-28T09:43:30;101934.34;;;20.30;34.86
78331;BME280;67594;53.854;-1.542;2023-02-28T09:48:49;101950.38;;;20.51;35.09
78331;BME280;67594;53.854;-1.542;2023-02-28T09:51:28;101952.91;;;20.62;34.54
78331;BME280;67594;53.854;-1.542;2023-02-28T09:53:55;101951.16;;;20.71;34.47
78331;BME280;67594;53.854;-1.542;2023-02-28T10:00:03;101952.00;;;20.71;34.45
78331;BME280;67594;53.854;-1.542;2023-02-28T10:05:17;101949.69;;;21.13;34.06
78331;BME280;67594;53.854;-1.542;2023-02-28T10:08:02;101946.53;;;21.18;34.53
78331;BME280;67594;53.854;-1.542;2023-02-28T10:10:33;101946.00;;;21.32;33.91
78331;BME280;67594;53.854;-1.542;2023-02-28T10:13:04;101940.88;;;21.47;33.63
78331;BME280;67594;53.854;-1.542;2023-02-28T10:15:32;101944.84;;;21.52;33.33
78331;BME280;67594;53.854;-1.542;2023-02-28T10:18:04;101940.81;;;21.38;33.39
78331;BME280;67594;53.854;-1.542;2023-02-28T10:20:34;101938.78;;;21.58;32.92
78331;BME280;67594;53.854;-1.542;2023-02-28T10:25:38;101933.66;;;21.73;32.90
78331;BME280;67594;53.854;-1.542;2023-02-28T10:28:12;101938.09;;;21.74;32.84
78331;BME280;67594;53.854;-1.542;2023-02-28T10:30:48;101941.81;;;21.73;32.63
78331;BME280;67594;53.854;-1.542;2023-02-28T10:35:51;101940.50;;;21.77;32.46
78331;BME280;67594;53.854;-1.542;2023-02-28T10:38:20;101935.06;;;21.77;32.72
78331;BME280;67594;53.854;-1.542;2023-02-28T10:40:46;101938.97;;;21.74;32.56
78331;BME280;67594;53.854;-1.542;2023-02-28T11:03:55;101945.47;;;21.46;32.34
78331;BME280;67594;53.854;-1.542;2023-02-28T11:06:30;101952.19;;;21.42;32.09
78331;BME280;67594;53.854;-1.542;2023-02-28T11:08:59;101947.78;;;21.23;32.09
78331;BME280;67594;53.854;-1.542;2023-02-28T11:11:28;101946.56;;;21.08;32.91
78331;BME280;67594;53.854;-1.542;2023-02-28T11:13:57;101941.16;;;20.99;32.74
78331;BME280;67594;53.854;-1.542;2023-02-28T11:16:35;101939.44;;;20.98;32.63
78331;BME280;67594;53.854;-1.542;2023-02-28T11:19:04;101941.91;;;20.91;32.38
78331;BME280;67594;53.854;-1.542;2023-02-28T11:21:36;101939.66;;;20.86;32.55
78331;BME280;67594;53.854;-1.542;2023-02-28T11:26:47;101938.72;;;20.78;32.95
78331;BME280;67594;53.854;-1.542;2023-02-28T11:29:23;101933.28;;;20.78;32.60
78331;BME280;67594;53.854;-1.542;2023-02-28T11:34:27;101927.59;;;20.71;32.22
78331;BME280;67594;53.854;-1.542;2023-02-28T11:36:54;101938.16;;;20.74;33.15
78331;BME280;67594;53.854;-1.542;2023-02-28T11:39:20;101924.44;;;20.76;33.26
78331;BME280;67594;53.854;-1.542;2023-02-28T11:46:59;101925.41;;;20.84;33.73
78331;BME280;67594;53.854;-1.542;2023-02-28T11:49:43;101926.00;;;21.06;32.99
78331;BME280;67594;53.854;-1.542;2023-02-28T11:52:34;101917.75;;;21.25;31.78
78331;BME280;67594;53.854;-1.542;2023-02-28T12:05:46;101897.78;;;20.99;33.93
78331;BME280;67594;53.854;-1.542;2023-02-28T12:14:42;101885.53;;;20.95;34.38
78331;BME280;67594;53.854;-1.542;2023-02-28T12:28:46;101871.16;;;20.67;36.12
78331;BME280;67594;53.854;-1.542;2023-02-28T12:31:18;101868.88;;;20.62;35.81
78331;BME280;67594;53.854;-1.542;2023-02-28T12:33:50;101866.66;;;20.58;36.18
78331;BME280;67594;53.854;-1.542;2023-02-28T12:36:19;101864.53;;;20.52;37.38
78331;BME280;67594;53.854;-1.542;2023-02-28T12:44:26;101853.44;;;20.72;37.07
78331;BME280;67594;53.854;-1.542;2023-02-28T12:46:58;101852.53;;;20.81;38.02
78331;BME280;67594;53.854;-1.542;2023-02-28T12:49:33;101849.47;;;20.67;38.04
78331;BME280;67594;53.854;-1.542;2023-02-28T12:52:01;101840.88;;;20.71;38.19
78331;BME280;67594;53.854;-1.542;2023-02-28T12:55:21;101837.56;;;20.77;37.98
78331;BME280;67594;53.854;-1.542;2023-02-28T12:57:50;101838.66;;;20.84;37.94
78331;BME280;67594;53.854;-1.542;2023-02-28T13:00:21;101837.25;;;20.80;38.10
78331;BME280;67594;53.854;-1.542;2023-02-28T13:03:01;101838.47;;;20.68;38.28
78331;BME280;67594;53.854;-1.542;2023-02-28T13:10:52;101830.38;;;20.59;38.79
78331;BME280;67594;53.854;-1.542;2023-02-28T13:13:20;101831.84;;;20.53;39.01
78331;BME280;67594;53.854;-1.542;2023-02-28T13:16:09;101831.47;;;20.48;38.89
78331;BME280;67594;53.854;-1.542;2023-02-28T13:18:46;101833.16;;;20.49;38.89
78331;BME280;67594;53.854;-1.542;2023-02-28T13:21:28;101822.72;;;20.17;39.36
78331;BME280;67594;53.854;-1.542;2023-02-28T13:23:59;101822.84;;;20.25;39.15
78331;BME280;67594;53.854;-1.542;2023-02-28T13:28:59;101820.88;;;20.18;38.98
78331;BME280;67594;53.854;-1.542;2023-02-28T13:31:25;101823.31;;;20.11;39.05
78331;BME280;67594;53.854;-1.542;2023-02-28T13:36:26;101817.50;;;20.06;38.11
78331;BME280;67594;53.854;-1.542;2023-02-28T13:38:56;101816.19;;;19.73;37.41
78331;BME280;67594;53.854;-1.542;2023-02-28T13:44:17;101817.91;;;19.55;39.28
78331;BME280;67594;53.854;-1.542;2023-02-28T13:51:49;101808.78;;;19.56;38.74
78331;BME280;67594;53.854;-1.542;2023-02-28T13:59:42;101816.47;;;19.61;38.09
78331;BME280;67594;53.854;-1.542;2023-02-28T14:05:17;101813.88;;;19.78;37.79
78331;BME280;67594;53.854;-1.542;2023-02-28T14:07:45;101812.44;;;19.74;37.70
78331;BME280;67594;53.854;-1.542;2023-02-28T14:12:55;101812.44;;;19.84;36.99
78331;BME280;67594;53.854;-1.542;2023-02-28T14:17:56;101808.47;;;19.78;37.00
78331;BME280;67594;53.854;-1.542;2023-02-28T14:20:26;101804.78;;;19.70;37.25
78331;BME280;67594;53.854;-1.542;2023-02-28T14:25:44;101807.63;;;19.68;36.90
78331;BME280;67594;53.854;-1.542;2023-02-28T14:28:40;101813.41;;;19.83;36.90
78331;BME280;67594;53.854;-1.542;2023-02-28T14:31:24;101804.59;;;19.91;36.50
78331;BME280;67594;53.854;-1.542;2023-02-28T14:34:12;101806.13;;;19.93;37.25
78331;BME280;67594;53.854;-1.542;2023-02-28T14:36:42;101799.88;;;19.93;37.09
78331;BME280;67594;53.854;-1.542;2023-02-28T14:39:17;101795.56;;;20.00;36.69
78331;BME280;67594;53.854;-1.542;2023-02-28T14:41:46;101792.66;;;19.74;34.73
78331;BME280;67594;53.854;-1.542;2023-02-28T14:44:25;101789.91;;;19.84;37.28
78331;BME280;67594;53.854;-1.542;2023-02-28T14:47:01;101787.94;;;19.86;36.96
78331;BME280;67594;53.854;-1.542;2023-02-28T14:49:32;101791.94;;;19.82;37.07
78331;BME280;67594;53.854;-1.542;2023-02-28T14:52:28;101794.34;;;19.85;37.18
78331;BME280;67594;53.854;-1.542;2023-02-28T14:54:56;101795.13;;;19.29;37.03
78331;BME280;67594;53.854;-1.542;2023-02-28T14:57:30;101792.72;;;19.55;36.74
78331;BME280;67594;53.854;-1.542;2023-02-28T15:02:38;101796.13;;;19.57;36.47
78331;BME280;67594;53.854;-1.542;2023-02-28T15:05:31;101785.00;;;19.50;36.59
78331;BME280;67594;53.854;-1.542;2023-02-28T15:08:12;101786.28;;;19.56;37.22
78331;BME280;67594;53.854;-1.542;2023-02-28T15:11:12;101791.13;;;19.62;36.80
78331;BME280;67594;53.854;-1.542;2023-02-28T15:13:40;101781.22;;;19.43;37.37
78331;BME280;67594;53.854;-1.542;2023-02-28T15:16:17;101781.44;;;19.50;37.07
78331;BME280;67594;53.854;-1.542;2023-02-28T15:18:51;101772.63;;;19.38;37.07
78331;BME280;67594;53.854;-1.542;2023-02-28T15:21:26;101779.91;;;19.47;37.60
78331;BME280;67594;53.854;-1.542;2023-02-28T15:24:02;101777.75;;;19.51;37.77